Disclaimer

Please do not use the information listed here in-flight or in-navigation, as they are not provided to us by the airports but are provided by volunteers, so they might be outdated.

Search


Regions


Airport information page

Radio informations:
Aerodrome flight information system (AFIS) - 122.1 MHz

Airport informations:
Latitude: 67° 07' 56.67" N
Longitude: 020° 48' 52.69" E
Elevation: 1027 feet - 313 meters
Operating hours: Remarks
Operating agency: Civil government, landing fees and diplomatic clearance may be required
Timezone: UTC+1(+2DT) - Last Sunday in March to last Sunday in October
Fuel: Jet A1, without icing nhibitor.

100/130 MIL Spec, low lead, aviation gasoline (BLUE)

Runway information:
12/30 - 5623 x 148 feet< - >1714 x 45 meters

Recent METARs:
ESNG 212050Z 29004KT CAVOK M22/M25 Q1010
ESNG 212120Z 27005KT CAVOK M23/M25 Q1010
ESNG 212150Z 29004KT CAVOK M23/M25 Q1010

Airport on the map: